Time,TemperatureF,DewpointF,PressureIn,WindDirection,WindDirectionDegrees,WindSpeedMPH,WindSpeedGustMPH,Humidity,HourlyPrecipIn,Conditions,Clouds,dailyrainin,SoftwareType,DateUTC
2014-12-17 00:00:00,51.4,48.9,29.92,ENE,73,0.0,0.0,91,0.01,,---,0.20,VWS V13.01,2014-12-17 08:00:00,
2014-12-17 00:05:00,51.6,49.1,29.91,ENE,73,0.0,0.0,91,0.01,,---,0.00,VWS V13.01,2014-12-17 08:05:00,
2014-12-17 00:10:00,51.6,49.1,29.91,ENE,73,0.0,0.0,91,0.01,,---,0.00,VWS V13.01,2014-12-17 08:10:00,
2014-12-17 00:15:00,51.6,49.1,29.91,ENE,73,0.0,0.0,91,0.01,,---,0.00,VWS V13.01,2014-12-17 08:15:00,
2014-12-17 00:20:00,51.6,49.1,29.90,ENE,73,0.0,0.0,91,0.01,,---,0.00,VWS V13.01,2014-12-17 08:20:00,
2014-12-17 00:25:00,51.6,49.1,29.90,ENE,73,0.0,0.0,91,0.01,,---,0.00,VWS V13.01,2014-12-17 08:25:00,
2014-12-17 00:30:00,51.6,49.1,29.90,ENE,73,0.0,0.0,91,0.01,,---,0.00,VWS V13.01,2014-12-17 08:30:00,
2014-12-17 00:35:00,51.6,49.1,29.90,ENE,73,0.0,0.0,91,0.01,,---,0.00,VWS V13.01,2014-12-17 08:35:00,
2014-12-17 00:40:00,51.6,49.1,29.90,ENE,73,0.0,0.0,91,0.01,,---,0.00,VWS V13.01,2014-12-17 08:40:00,
2014-12-17 00:45:00,51.4,48.9,29.90,ENE,73,0.0,0.0,91,0.01,,---,0.00,VWS V13.01,2014-12-17 08:45:00,
2014-12-17 00:50:00,51.4,48.9,29.89,ENE,73,0.0,0.0,91,0.01,,---,0.00,VWS V13.01,2014-12-17 08:50:00,
2014-12-17 00:55:00,51.4,48.9,29.89,ENE,73,0.0,0.0,91,0.01,,---,0.00,VWS V13.01,2014-12-17 08:55:00,
2014-12-17 01:00:00,51.4,48.9,29.89,ENE,73,0.0,0.0,91,0.01,,---,0.00,VWS V13.01,2014-12-17 09:00:00,
2014-12-17 01:05:00,51.4,48.9,29.89,ENE,73,0.0,0.0,91,0.00,,---,0.00,VWS V13.01,2014-12-17 09:05:00,
2014-12-17 01:10:00,51.4,48.9,29.89,ENE,73,0.0,0.0,91,0.00,,---,0.00,VWS V13.01,2014-12-17 09:10:00,
2014-12-17 01:15:00,51.4,48.9,29.89,ENE,73,0.0,0.0,91,0.00,,---,0.00,VWS V13.01,2014-12-17 09:15:00,
2014-12-17 01:20:00,51.4,48.9,29.89,ENE,73,0.0,0.0,91,0.01,,---,0.01,VWS V13.01,2014-12-17 09:20:00,
2014-12-17 01:25:00,51.4,48.9,29.89,ENE,73,0.0,0.0,91,0.01,,---,0.01,VWS V13.01,2014-12-17 09:25:00,
2014-12-17 01:30:00,51.6,49.1,29.89,ENE,73,0.0,0.0,91,0.01,,---,0.01,VWS V13.01,2014-12-17 09:30:00,
2014-12-17 01:35:00,51.6,49.1,29.89,ENE,73,0.0,0.0,91,0.01,,---,0.01,VWS V13.01,2014-12-17 09:35:00,
2014-12-17 01:40:00,51.6,49.1,29.89,ENE,73,0.0,0.0,91,0.01,,---,0.01,VWS V13.01,2014-12-17 09:40:00,
2014-12-17 01:45:00,51.6,49.1,29.89,ENE,73,0.0,0.0,91,0.01,,---,0.01,VWS V13.01,2014-12-17 09:45:00,
2014-12-17 01:50:00,51.6,49.1,29.89,ENE,73,0.0,0.0,91,0.01,,---,0.01,VWS V13.01,2014-12-17 09:50:00,
2014-12-17 01:55:00,51.6,49.4,29.89,ENE,73,0.0,0.0,92,0.01,,---,0.01,VWS V13.01,2014-12-17 09:55:00,
2014-12-17 02:00:00,51.6,49.4,29.89,ENE,73,0.0,0.0,92,0.01,,---,0.01,VWS V13.01,2014-12-17 10:00:00,
2014-12-17 02:05:00,51.6,49.4,29.89,ENE,73,0.0,0.0,92,0.01,,---,0.01,VWS V13.01,2014-12-17 10:05:00,
2014-12-17 02:10:00,51.6,49.4,29.89,ENE,73,0.0,0.0,92,0.01,,---,0.01,VWS V13.01,2014-12-17 10:10:00,
2014-12-17 02:15:00,51.7,49.5,29.89,ENE,73,0.0,2.0,92,0.01,,---,0.01,VWS V13.01,2014-12-17 10:15:00,
2014-12-17 02:20:00,51.7,49.5,29.89,ENE,73,0.0,2.0,92,0.02,,---,0.02,VWS V13.01,2014-12-17 10:20:00,
2014-12-17 02:25:00,51.9,49.7,29.89,ENE,73,0.0,2.0,92,0.02,,---,0.02,VWS V13.01,2014-12-17 10:25:00,
2014-12-17 02:30:00,51.9,49.7,29.89,ENE,73,0.0,2.0,92,0.02,,---,0.02,VWS V13.01,2014-12-17 10:30:00,
2014-12-17 02:35:00,51.9,49.7,29.90,ENE,73,0.0,0.0,92,0.02,,---,0.03,VWS V13.01,2014-12-17 10:35:00,
2014-12-17 02:40:00,51.9,49.7,29.90,ENE,73,0.0,0.0,92,0.03,,---,0.04,VWS V13.01,2014-12-17 10:40:00,
2014-12-17 02:45:00,51.9,49.7,29.90,ENE,73,0.0,1.0,92,0.04,,---,0.06,VWS V13.01,2014-12-17 10:45:00,
2014-12-17 02:50:00,51.9,49.7,29.89,ENE,73,0.0,1.0,92,0.06,,---,0.07,VWS V13.01,2014-12-17 10:50:00,
2014-12-17 02:55:00,51.9,49.7,29.89,ENE,73,0.0,1.0,92,0.06,,---,0.07,VWS V13.01,2014-12-17 10:55:00,
2014-12-17 03:00:00,51.9,49.7,29.89,ENE,73,0.0,1.0,92,0.06,,---,0.07,VWS V13.01,2014-12-17 11:00:00,
2014-12-17 03:05:00,51.9,49.7,29.89,ENE,73,0.0,0.0,92,0.06,,---,0.07,VWS V13.01,2014-12-17 11:05:00,
2014-12-17 03:10:00,52.0,49.8,29.89,ENE,73,0.0,0.0,92,0.06,,---,0.07,VWS V13.01,2014-12-17 11:10:00,
2014-12-17 03:15:00,51.9,49.7,29.89,ENE,73,0.0,0.0,92,0.06,,---,0.07,VWS V13.01,2014-12-17 11:15:00,
2014-12-17 03:20:00,51.9,49.7,29.88,ENE,73,0.0,0.0,92,0.06,,---,0.07,VWS V13.01,2014-12-17 11:20:00,
2014-12-17 03:25:00,51.7,49.5,29.88,ENE,73,0.0,0.0,92,0.06,,---,0.07,VWS V13.01,2014-12-17 11:25:00,
2014-12-17 03:30:00,51.6,49.4,29.88,ENE,73,0.0,0.0,92,0.06,,---,0.07,VWS V13.01,2014-12-17 11:30:00,
2014-12-17 03:35:00,51.3,49.1,29.88,ENE,73,0.0,0.0,92,0.04,,---,0.07,VWS V13.01,2014-12-17 11:35:00,
2014-12-17 03:40:00,51.1,48.9,29.88,ENE,73,0.0,0.0,92,0.04,,---,0.07,VWS V13.01,2014-12-17 11:40:00,
2014-12-17 03:45:00,51.1,48.9,29.88,ENE,73,0.0,0.0,92,0.04,,---,0.07,VWS V13.01,2014-12-17 11:45:00,
2014-12-17 03:50:00,51.0,48.8,29.88,ENE,73,0.0,0.0,92,0.04,,---,0.07,VWS V13.01,2014-12-17 11:50:00,
2014-12-17 03:55:00,50.8,48.6,29.88,ENE,73,0.0,0.0,92,0.04,,---,0.07,VWS V13.01,2014-12-17 11:55:00,
2014-12-17 04:00:00,50.8,48.6,29.88,ENE,73,0.0,0.0,92,0.04,,---,0.07,VWS V13.01,2014-12-17 12:00:00,
2014-12-17 04:05:00,50.8,48.6,29.89,ENE,73,0.0,0.0,92,0.00,,---,0.07,VWS V13.01,2014-12-17 12:05:00,
2014-12-17 04:10:00,50.8,48.6,29.89,ENE,73,0.0,0.0,92,0.00,,---,0.07,VWS V13.01,2014-12-17 12:10:00,
2014-12-17 04:15:00,50.8,48.6,29.89,ENE,73,0.0,0.0,92,0.00,,---,0.07,VWS V13.01,2014-12-17 12:15:00,
2014-12-17 04:20:00,50.8,48.6,29.88,ENE,73,0.0,0.0,92,0.00,,---,0.07,VWS V13.01,2014-12-17 12:20:00,
2014-12-17 04:25:00,51.0,48.8,29.88,ENE,73,0.0,0.0,92,0.00,,---,0.07,VWS V13.01,2014-12-17 12:25:00,
2014-12-17 04:30:00,51.0,48.8,29.88,ENE,73,0.0,0.0,92,0.00,,---,0.07,VWS V13.01,2014-12-17 12:30:00,
2014-12-17 04:35:00,51.0,48.8,29.89,ENE,73,0.0,0.0,92,0.00,,---,0.07,VWS V13.01,2014-12-17 12:35:00,
2014-12-17 04:40:00,51.0,48.8,29.89,ENE,73,0.0,0.0,92,0.00,,---,0.07,VWS V13.01,2014-12-17 12:40:00,
2014-12-17 04:45:00,51.0,48.8,29.89,ENE,73,0.0,0.0,92,0.00,,---,0.07,VWS V13.01,2014-12-17 12:45:00,
2014-12-17 04:50:00,51.1,48.9,29.89,ENE,73,0.0,0.0,92,0.00,,---,0.07,VWS V13.01,2014-12-17 12:50:00,
2014-12-17 04:55:00,51.0,48.8,29.89,ENE,73,0.0,0.0,92,0.00,,---,0.07,VWS V13.01,2014-12-17 12:55:00,
2014-12-17 05:00:00,51.0,48.8,29.89,ENE,73,0.0,0.0,92,0.00,,---,0.07,VWS V13.01,2014-12-17 13:00:00,
2014-12-17 05:05:00,51.0,48.8,29.89,ENE,73,0.0,0.0,92,0.00,,---,0.07,VWS V13.01,2014-12-17 13:05:00,
2014-12-17 05:10:00,50.8,48.6,29.89,ENE,73,0.0,0.0,92,0.00,,---,0.07,VWS V13.01,2014-12-17 13:10:00,
2014-12-17 05:15:00,50.8,48.6,29.89,ENE,73,0.0,0.0,92,0.00,,---,0.07,VWS V13.01,2014-12-17 13:15:00,
2014-12-17 05:20:00,50.8,48.6,29.90,ENE,73,0.0,0.0,92,0.00,,---,0.07,VWS V13.01,2014-12-17 13:20:00,
2014-12-17 05:25:00,50.7,48.5,29.90,ENE,73,0.0,0.0,92,0.00,,---,0.07,VWS V13.01,2014-12-17 13:25:00,
2014-12-17 05:30:00,50.7,48.5,29.90,ENE,73,0.0,0.0,92,0.00,,---,0.07,VWS V13.01,2014-12-17 13:30:00,
2014-12-17 05:35:00,50.7,48.5,29.90,ENE,73,0.0,0.0,92,0.00,,---,0.07,VWS V13.01,2014-12-17 13:35:00,
2014-12-17 05:40:00,50.7,48.5,29.90,ENE,73,0.0,0.0,92,0.00,,---,0.07,VWS V13.01,2014-12-17 13:40:00,
2014-12-17 05:45:00,50.7,48.5,29.90,ENE,73,0.0,0.0,92,0.00,,---,0.07,VWS V13.01,2014-12-17 13:45:00,
2014-12-17 05:50:00,50.7,48.5,29.90,ENE,73,0.0,0.0,92,0.00,,---,0.07,VWS V13.01,2014-12-17 13:50:00,
2014-12-17 05:55:00,50.5,48.3,29.90,ENE,73,0.0,0.0,92,0.00,,---,0.07,VWS V13.01,2014-12-17 13:55:00,
2014-12-17 06:00:00,50.4,48.2,29.90,ENE,73,0.0,0.0,92,0.00,,---,0.07,VWS V13.01,2014-12-17 14:00:00,
2014-12-17 06:05:00,50.1,47.9,29.91,ENE,73,0.0,0.0,92,0.00,,---,0.07,VWS V13.01,2014-12-17 14:05:00,
2014-12-17 06:10:00,49.8,47.6,29.91,ENE,73,0.0,0.0,92,0.00,,---,0.07,VWS V13.01,2014-12-17 14:10:00,
2014-12-17 06:15:00,49.6,47.4,29.91,ENE,73,0.0,0.0,92,0.00,,---,0.07,VWS V13.01,2014-12-17 14:15:00,
2014-12-17 06:20:00,49.5,47.3,29.92,ENE,73,0.0,0.0,92,0.00,,---,0.07,VWS V13.01,2014-12-17 14:20:00,
2014-12-17 06:25:00,49.2,47.0,29.92,ENE,73,0.0,0.0,92,0.00,,---,0.07,VWS V13.01,2014-12-17 14:25:00,
2014-12-17 06:30:00,49.1,46.9,29.92,ENE,73,0.0,0.0,92,0.00,,---,0.07,VWS V13.01,2014-12-17 14:30:00,
2014-12-17 06:35:00,48.9,46.7,29.93,ENE,73,0.0,0.0,92,0.00,,---,0.07,VWS V13.01,2014-12-17 14:35:00,
2014-12-17 06:40:00,48.8,46.6,29.93,ENE,73,0.0,0.0,92,0.00,,---,0.07,VWS V13.01,2014-12-17 14:40:00,
2014-12-17 06:45:00,48.5,46.3,29.93,ENE,73,0.0,0.0,92,0.00,,---,0.07,VWS V13.01,2014-12-17 14:45:00,
2014-12-17 06:50:00,48.3,46.1,29.93,ENE,73,0.0,0.0,92,0.00,,---,0.07,VWS V13.01,2014-12-17 14:50:00,
2014-12-17 06:55:00,48.0,45.8,29.93,ENE,73,0.0,0.0,92,0.00,,---,0.07,VWS V13.01,2014-12-17 14:55:00,
2014-12-17 07:00:00,47.9,45.7,29.93,ENE,73,0.0,0.0,92,0.00,,---,0.07,VWS V13.01,2014-12-17 15:00:00,
2014-12-17 07:05:00,47.9,45.7,29.93,ENE,73,0.0,0.0,92,0.00,,---,0.07,VWS V13.01,2014-12-17 15:05:00,
2014-12-17 07:10:00,47.9,45.7,29.93,ENE,73,0.0,0.0,92,0.00,,---,0.07,VWS V13.01,2014-12-17 15:10:00,
2014-12-17 07:15:00,48.0,45.8,29.93,ENE,73,0.0,0.0,92,0.00,,---,0.07,VWS V13.01,2014-12-17 15:15:00,
2014-12-17 07:20:00,48.0,45.8,29.94,ENE,73,0.0,0.0,92,0.00,,---,0.07,VWS V13.01,2014-12-17 15:20:00,
2014-12-17 07:25:00,48.2,46.0,29.94,ENE,73,0.0,0.0,92,0.00,,---,0.07,VWS V13.01,2014-12-17 15:25:00,
2014-12-17 07:30:00,48.3,46.1,29.94,ENE,73,0.0,0.0,92,0.00,,---,0.07,VWS V13.01,2014-12-17 15:30:00,
2014-12-17 07:35:00,48.6,46.7,29.94,ENE,73,0.0,0.0,93,0.00,,---,0.07,VWS V13.01,2014-12-17 15:35:00,
2014-12-17 07:40:00,48.8,46.9,29.94,ENE,73,0.0,0.0,93,0.00,,---,0.07,VWS V13.01,2014-12-17 15:40:00,
2014-12-17 07:45:00,48.8,46.6,29.94,ENE,73,0.0,0.0,92,0.00,,---,0.07,VWS V13.01,2014-12-17 15:45:00,
2014-12-17 07:50:00,48.9,47.0,29.95,ENE,73,0.0,0.0,93,0.00,,---,0.07,VWS V13.01,2014-12-17 15:50:00,
2014-12-17 07:55:00,48.9,47.0,29.95,ENE,73,0.0,0.0,93,0.00,,---,0.07,VWS V13.01,2014-12-17 15:55:00,
2014-12-17 08:00:00,49.1,46.9,29.95,ENE,73,0.0,0.0,92,0.00,,---,0.07,VWS V13.01,2014-12-17 16:00:00,
2014-12-17 08:05:00,49.1,47.2,29.95,ENE,73,0.0,0.0,93,0.00,,---,0.07,VWS V13.01,2014-12-17 16:05:00,
2014-12-17 08:10:00,49.2,47.3,29.95,ENE,73,0.0,0.0,93,0.00,,---,0.07,VWS V13.01,2014-12-17 16:10:00,
2014-12-17 08:15:00,49.2,47.3,29.95,ENE,73,0.0,0.0,93,0.00,,---,0.07,VWS V13.01,2014-12-17 16:15:00,
2014-12-17 08:20:00,49.5,47.6,29.96,ENE,73,0.0,0.0,93,0.00,,---,0.07,VWS V13.01,2014-12-17 16:20:00,
2014-12-17 08:25:00,49.8,47.9,29.96,ENE,73,0.0,0.0,93,0.00,,---,0.07,VWS V13.01,2014-12-17 16:25:00,
2014-12-17 08:30:00,49.9,48.0,29.96,ENE,73,0.0,0.0,93,0.00,,---,0.07,VWS V13.01,2014-12-17 16:30:00,
2014-12-17 08:35:00,49.9,48.0,29.97,ENE,73,0.0,0.0,93,0.00,,---,0.07,VWS V13.01,2014-12-17 16:35:00,
2014-12-17 08:40:00,50.2,48.3,29.97,ENE,73,0.0,0.0,93,0.00,,---,0.07,VWS V13.01,2014-12-17 16:40:00,
2014-12-17 08:45:00,50.4,48.5,29.97,ENE,73,0.0,0.0,93,0.00,,---,0.07,VWS V13.01,2014-12-17 16:45:00,
2014-12-17 08:50:00,50.5,48.3,29.97,ENE,73,0.0,0.0,92,0.00,,---,0.07,VWS V13.01,2014-12-17 16:50:00,
2014-12-17 08:55:00,50.8,48.6,29.97,ENE,73,0.0,0.0,92,0.00,,---,0.07,VWS V13.01,2014-12-17 16:55:00,
2014-12-17 09:00:00,51.1,49.2,29.97,ENE,73,0.0,0.0,93,0.00,,---,0.07,VWS V13.01,2014-12-17 17:00:00,
2014-12-17 09:05:00,51.1,49.2,29.98,ENE,73,0.0,0.0,93,0.00,,---,0.07,VWS V13.01,2014-12-17 17:05:00,
2014-12-17 09:10:00,51.3,49.3,29.98,ENE,73,0.0,0.0,93,0.00,,---,0.07,VWS V13.01,2014-12-17 17:10:00,
2014-12-17 09:15:00,51.1,48.9,29.98,ENE,73,0.0,0.0,92,0.00,,---,0.07,VWS V13.01,2014-12-17 17:15:00,
2014-12-17 09:20:00,51.1,49.2,29.99,ENE,73,0.0,0.0,93,0.00,,---,0.07,VWS V13.01,2014-12-17 17:20:00,
2014-12-17 09:25:00,51.0,48.8,29.99,ENE,73,0.0,0.0,92,0.00,,---,0.07,VWS V13.01,2014-12-17 17:25:00,
2014-12-17 09:30:00,50.7,48.5,29.99,ENE,73,0.0,0.0,92,0.00,,---,0.07,VWS V13.01,2014-12-17 17:30:00,
2014-12-17 09:35:00,50.7,48.5,29.99,ENE,73,0.0,0.0,92,0.00,,---,0.07,VWS V13.01,2014-12-17 17:35:00,
2014-12-17 09:40:00,50.7,48.5,29.99,ENE,73,1.0,3.0,92,0.00,,---,0.07,VWS V13.01,2014-12-17 17:40:00,
2014-12-17 09:45:00,50.8,48.6,29.99,ENE,73,1.0,3.0,92,0.00,,---,0.07,VWS V13.01,2014-12-17 17:45:00,
2014-12-17 09:50:00,50.7,48.5,29.99,WNW,299,1.0,3.0,92,0.00,,---,0.07,VWS V13.01,2014-12-17 17:50:00,
2014-12-17 09:55:00,50.5,48.3,29.99,WNW,296,0.0,3.0,92,0.00,,---,0.07,VWS V13.01,2014-12-17 17:55:00,
2014-12-17 10:00:00,50.2,48.0,29.99,WNW,289,3.0,4.0,92,0.00,,---,0.07,VWS V13.01,2014-12-17 18:00:00,
2014-12-17 10:05:00,50.1,47.9,30.00,WNW,289,0.0,0.0,92,0.01,,---,0.08,VWS V13.01,2014-12-17 18:05:00,
2014-12-17 10:09:00,50.1,47.9,30.00,WNW,289,0.0,0.0,92,0.01,,---,0.08,VWS V13.01,2014-12-17 18:09:00,
2014-12-17 10:14:00,50.4,48.2,30.00,WNW,289,0.0,0.0,92,0.01,,---,0.08,VWS V13.01,2014-12-17 18:14:00,
2014-12-17 10:19:00,50.4,47.9,30.00,WNW,289,0.0,2.0,91,0.01,,---,0.08,VWS V13.01,2014-12-17 18:19:00,
2014-12-17 10:24:00,50.4,47.9,30.00,WNW,289,0.0,2.0,91,0.01,,---,0.08,VWS V13.01,2014-12-17 18:24:00,
2014-12-17 10:29:00,50.5,47.7,30.00,WNW,289,0.0,2.0,90,0.01,,---,0.08,VWS V13.01,2014-12-17 18:29:00,
2014-12-17 10:34:00,50.7,47.9,30.00,WNW,289,0.0,0.0,90,0.01,,---,0.08,VWS V13.01,2014-12-17 18:34:00,
2014-12-17 10:39:00,50.7,47.6,30.00,WNW,289,0.0,0.0,89,0.01,,---,0.08,VWS V13.01,2014-12-17 18:39:00,
2014-12-17 10:44:00,50.8,48.0,30.00,WNW,289,0.0,1.0,90,0.01,,---,0.08,VWS V13.01,2014-12-17 18:44:00,
2014-12-17 10:49:00,51.1,48.0,29.99,WNW,284,0.0,5.0,89,0.01,,---,0.08,VWS V13.01,2014-12-17 18:49:00,
2014-12-17 10:54:00,51.0,47.6,29.99,WNW,284,0.0,5.0,88,0.01,,---,0.08,VWS V13.01,2014-12-17 18:54:00,
2014-12-17 10:59:00,51.0,47.0,29.99,WNW,284,2.0,5.0,86,0.01,,---,0.08,VWS V13.01,2014-12-17 18:59:00,
2014-12-17 11:04:00,51.4,47.4,29.99,WNW,284,0.0,0.0,86,0.00,,---,0.08,VWS V13.01,2014-12-17 19:04:00,
2014-12-17 11:09:00,51.7,47.3,29.99,WNW,284,0.0,2.0,85,0.00,,---,0.08,VWS V13.01,2014-12-17 19:09:00,
2014-12-17 11:14:00,51.9,47.5,29.99,WNW,284,0.0,2.0,85,0.00,,---,0.08,VWS V13.01,2014-12-17 19:14:00,
2014-12-17 11:19:00,51.7,46.4,29.99,WNW,284,0.0,2.0,82,0.00,,---,0.08,VWS V13.01,2014-12-17 19:19:00,
2014-12-17 11:24:00,52.0,47.0,29.99,WNW,285,0.0,2.0,83,0.00,,---,0.08,VWS V13.01,2014-12-17 19:24:00,
2014-12-17 11:29:00,52.3,47.3,29.99,WNW,285,0.0,2.0,83,0.00,,---,0.08,VWS V13.01,2014-12-17 19:29:00,
2014-12-17 11:34:00,52.6,47.6,29.98,WNW,285,0.0,0.0,83,0.00,,---,0.08,VWS V13.01,2014-12-17 19:34:00,
2014-12-17 11:39:00,52.9,47.6,29.98,East,85,0.0,2.0,82,0.00,,---,0.08,VWS V13.01,2014-12-17 19:39:00,
2014-12-17 11:44:00,53.2,47.2,29.98,East,85,0.0,2.0,80,0.00,,---,0.08,VWS V13.01,2014-12-17 19:44:00,
2014-12-17 11:49:00,53.3,46.6,29.98,East,85,1.0,3.0,78,0.00,,---,0.08,VWS V13.01,2014-12-17 19:49:00,
2014-12-17 11:54:00,53.8,47.1,29.98,East,85,0.0,3.0,78,0.00,,---,0.08,VWS V13.01,2014-12-17 19:54:00,
2014-12-17 11:59:00,53.6,46.2,29.98,ESE,107,1.0,3.0,76,0.00,,---,0.08,VWS V13.01,2014-12-17 19:59:00,
2014-12-17 12:04:00,53.9,46.2,29.98,ESE,107,0.0,0.0,75,0.00,,---,0.08,VWS V13.01,2014-12-17 20:04:00,